Time;durP1;ratioP1;P1;durP2;ratioP2;P2;SDS_P1;SDS_P2;PMS_P1;PMS_P2;Temp;Humidity;BMP_temperature;BMP_pressure;BME280_temperature;BME280_humidity;BME280_pressure;Samples;Min_cycle;Max_cycle;Signal;HPM_P1;HPM_P2
2022/04/10 00:01:50;;;;;;;;;;;20.40;38.80;;;;;;5067502;28;19931;-51
2022/04/10 00:04:18;;;;;;;;;;;20.40;38.70;;;;;;5073361;28;20393;-46
2022/04/10 00:06:44;;;;;;;;;;;20.40;38.70;;;;;;5090230;28;20274;-51
2022/04/10 00:09:13;;;;;;;;;;;20.40;38.70;;;;;;5062645;28;20023;-45
2022/04/10 00:11:40;;;;;;;;;;;20.40;38.70;;;;;;5068407;28;20027;-48
2022/04/10 00:14:08;;;;;;;;;;;20.40;38.70;;;;;;5067806;28;20377;-48
2022/04/10 00:16:35;;;;;;;;;;;20.40;38.70;;;;;;5070006;28;20382;-49
2022/04/10 00:19:04;;;;;;;;;;;20.40;38.70;;;;;;5067939;28;19931;-48
2022/04/10 00:21:31;;;;;;;;;;;20.40;38.70;;;;;;5068709;28;19932;-49
2022/04/10 00:23:57;;;;;;;;;;;20.40;38.70;;;;;;5073981;28;20019;-47
2022/04/10 00:26:24;;;;;;;;;;;20.40;38.70;;;;;;5084998;28;20441;-46
2022/04/10 00:28:51;;;;;;;;;;;20.40;38.70;;;;;;5069337;28;19939;-49
2022/04/10 00:31:19;;;;;;;;;;;20.40;38.70;;;;;;5086944;28;19928;-48
2022/04/10 00:33:46;;;;;;;;;;;20.40;38.70;;;;;;5088063;28;19928;-48
2022/04/10 00:36:13;;;;;;;;;;;20.40;38.70;;;;;;5073318;28;19930;-51
2022/04/10 00:38:40;;;;;;;;;;;20.40;38.70;;;;;;5068815;28;19932;-46
2022/04/10 00:41:07;;;;;;;;;;;20.40;38.70;;;;;;5068698;28;19925;-50
2022/04/10 00:43:36;;;;;;;;;;;20.40;38.70;;;;;;5065870;28;20323;-51
2022/04/10 00:46:03;;;;;;;;;;;20.40;38.70;;;;;;5073782;28;19935;-49
2022/04/10 00:48:32;;;;;;;;;;;20.40;38.70;;;;;;5087212;28;19931;-47
2022/04/10 00:53:43;;;;;;;;;;;20.40;38.70;;;;;;5072599;28;20389;-48
2022/04/10 00:56:09;;;;;;;;;;;20.40;38.60;;;;;;5071806;28;19925;-48
2022/04/10 00:58:36;;;;;;;;;;;20.40;38.60;;;;;;5085559;28;19928;-47
2022/04/10 01:01:03;;;;;;;;;;;20.40;38.60;;;;;;5066992;28;19925;-50
2022/04/10 01:03:31;;;;;;;;;;;20.40;38.70;;;;;;5071255;28;20003;-48
2022/04/10 01:05:58;;;;;;;;;;;20.40;38.60;;;;;;5092654;28;19925;-49
2022/04/10 01:08:25;;;;;;;;;;;20.40;38.60;;;;;;5081393;28;19985;-48
2022/04/10 01:10:52;;;;;;;;;;;20.40;38.60;;;;;;5073566;28;19931;-50
2022/04/10 01:13:18;;;;;;;;;;;20.40;38.60;;;;;;5073802;28;19968;-47
2022/04/10 01:15:45;;;;;;;;;;;20.40;38.60;;;;;;5062245;28;19964;-47
2022/04/10 01:18:12;;;;;;;;;;;20.40;38.60;;;;;;5072864;28;19930;-52
2022/04/10 01:20:40;;;;;;;;;;;20.40;38.60;;;;;;5070282;28;19924;-47
2022/04/10 01:23:08;;;;;;;;;;;20.40;38.60;;;;;;5070023;28;19931;-48
2022/04/10 01:25:35;;;;;;;;;;;20.40;38.60;;;;;;5067182;28;19948;-48
2022/04/10 01:28:02;;;;;;;;;;;20.40;38.60;;;;;;5071783;28;19940;-50
2022/04/10 01:30:29;;;;;;;;;;;20.40;38.50;;;;;;5070721;28;19956;-49
2022/04/10 01:32:57;;;;;;;;;;;20.40;38.60;;;;;;5071572;28;19925;-47
2022/04/10 01:35:25;;;;;;;;;;;20.40;38.50;;;;;;5075603;28;20162;-46
2022/04/10 01:37:52;;;;;;;;;;;20.40;38.50;;;;;;5068040;28;19925;-47
2022/04/10 01:40:20;;;;;;;;;;;20.40;38.50;;;;;;5071328;28;19928;-51
2022/04/10 01:42:47;;;;;;;;;;;20.40;38.50;;;;;;5064506;28;20301;-48
2022/04/10 01:45:13;;;;;;;;;;;20.40;38.50;;;;;;5063791;28;20027;-51
2022/04/10 01:47:40;;;;;;;;;;;20.40;38.50;;;;;;5062311;28;20048;-47
2022/04/10 01:50:07;;;;;;;;;;;20.40;38.50;;;;;;5075414;28;20035;-48
2022/04/10 01:52:34;;;;;;;;;;;20.40;38.50;;;;;;5071420;28;20552;-48
2022/04/10 01:55:01;;;;;;;;;;;20.40;38.40;;;;;;5062092;28;20010;-48
2022/04/10 01:57:29;;;;;;;;;;;20.40;38.40;;;;;;5070674;28;19982;-46
2022/04/10 01:59:56;;;;;;;;;;;20.40;39.00;;;;;;5072726;28;20011;-47
2022/04/10 02:02:23;;;;;;;;;;;20.40;38.50;;;;;;5058206;28;19986;-52
2022/04/10 02:04:51;;;;;;;;;;;20.40;38.40;;;;;;5089374;28;19974;-46
2022/04/10 02:07:18;;;;;;;;;;;20.40;38.40;;;;;;5069445;28;20003;-52
2022/04/10 02:09:45;;;;;;;;;;;20.40;38.40;;;;;;5073106;28;19974;-52
2022/04/10 02:12:12;;;;;;;;;;;20.40;38.40;;;;;;5087886;28;19932;-48
2022/04/10 02:14:40;;;;;;;;;;;20.40;38.30;;;;;;5083806;28;19925;-48
2022/04/10 02:17:07;;;;;;;;;;;20.40;38.30;;;;;;5070478;28;20007;-46
2022/04/10 02:19:34;;;;;;;;;;;20.40;38.30;;;;;;5070397;28;19933;-48
2022/04/10 02:22:01;;;;;;;;;;;20.40;38.30;;;;;;5069129;28;20019;-50
2022/04/10 02:24:27;;;;;;;;;;;20.40;38.40;;;;;;5069330;28;19974;-47
2022/04/10 02:26:54;;;;;;;;;;;20.40;38.30;;;;;;5072287;28;19947;-46
2022/04/10 02:29:21;;;;;;;;;;;20.40;38.30;;;;;;5067473;28;19947;-47
2022/04/10 02:31:50;;;;;;;;;;;20.40;38.30;;;;;;5070604;28;19924;-46
2022/04/10 02:34:16;;;;;;;;;;;20.40;38.30;;;;;;5071409;28;20281;-51
2022/04/10 02:36:43;;;;;;;;;;;20.40;38.30;;;;;;5066179;28;19924;-46
2022/04/10 02:39:09;;;;;;;;;;;20.40;38.30;;;;;;5063454;28;20015;-51
2022/04/10 02:41:36;;;;;;;;;;;20.40;38.30;;;;;;5085693;28;19964;-52
2022/04/10 02:44:03;;;;;;;;;;;20.40;38.30;;;;;;5087078;28;19970;-48
2022/04/10 02:46:30;;;;;;;;;;;20.40;38.30;;;;;;5070737;28;20021;-48
2022/04/10 02:48:58;;;;;;;;;;;20.40;38.30;;;;;;5086418;28;19924;-51
2022/04/10 02:51:25;;;;;;;;;;;20.40;38.30;;;;;;5064146;28;19929;-51
2022/04/10 02:53:52;;;;;;;;;;;20.40;38.30;;;;;;5086718;28;19928;-48
2022/04/10 02:56:18;;;;;;;;;;;20.40;38.30;;;;;;5066360;28;19924;-48
2022/04/10 02:58:45;;;;;;;;;;;20.40;38.30;;;;;;5070790;28;19924;-50
2022/04/10 03:01:12;;;;;;;;;;;20.40;38.30;;;;;;5075022;28;19935;-46
2022/04/10 03:03:38;;;;;;;;;;;20.40;38.30;;;;;;5059898;28;19925;-51
2022/04/10 03:06:06;;;;;;;;;;;20.40;38.30;;;;;;5067773;28;19928;-48
2022/04/10 03:08:33;;;;;;;;;;;20.40;38.30;;;;;;5071402;28;19959;-52
2022/04/10 03:11:00;;;;;;;;;;;20.40;38.20;;;;;;5068502;28;20494;-50
2022/04/10 03:13:27;;;;;;;;;;;20.40;38.20;;;;;;5066823;28;19924;-50
2022/04/10 03:15:53;;;;;;;;;;;20.40;38.20;;;;;;5067208;28;20365;-48
2022/04/10 03:18:20;;;;;;;;;;;20.40;38.20;;;;;;5071683;28;19974;-47
2022/04/10 03:20:47;;;;;;;;;;;20.40;38.20;;;;;;5089393;28;19925;-51
2022/04/10 03:23:15;;;;;;;;;;;20.40;38.20;;;;;;5067914;28;20284;-52
2022/04/10 03:25:42;;;;;;;;;;;20.40;38.20;;;;;;5064885;28;19928;-50
2022/04/10 03:28:08;;;;;;;;;;;20.40;38.20;;;;;;5070534;28;20354;-48
2022/04/10 03:30:35;;;;;;;;;;;20.40;38.10;;;;;;5086033;28;19978;-51
2022/04/10 03:33:01;;;;;;;;;;;20.40;38.20;;;;;;5070545;28;19931;-48
2022/04/10 03:35:28;;;;;;;;;;;20.40;38.10;;;;;;5070058;28;19924;-52
2022/04/10 03:37:55;;;;;;;;;;;20.40;38.20;;;;;;5070201;28;19928;-47
2022/04/10 03:40:23;;;;;;;;;;;20.40;38.10;;;;;;5070908;28;19924;-46
2022/04/10 03:42:50;;;;;;;;;;;20.40;38.10;;;;;;5069123;28;20027;-51
2022/04/10 03:45:17;;;;;;;;;;;20.40;38.10;;;;;;5084265;28;20391;-49
2022/04/10 03:47:43;;;;;;;;;;;20.40;38.10;;;;;;5070197;28;19928;-52
2022/04/10 03:50:10;;;;;;;;;;;20.40;38.10;;;;;;5069667;28;19968;-47
2022/04/10 03:52:37;;;;;;;;;;;20.40;38.10;;;;;;5066111;28;19951;-51
2022/04/10 03:55:04;;;;;;;;;;;20.40;38.10;;;;;;5063968;28;19978;-48
2022/04/10 03:57:32;;;;;;;;;;;20.40;38.10;;;;;;5078872;28;20000;-50
2022/04/10 03:59:59;;;;;;;;;;;20.40;38.10;;;;;;5061771;28;19963;-52
2022/04/10 04:02:26;;;;;;;;;;;20.40;38.10;;;;;;5072557;28;19932;-52
2022/04/10 04:04:52;;;;;;;;;;;20.40;38.10;;;;;;5072204;28;19925;-46
2022/04/10 04:07:19;;;;;;;;;;;20.40;38.00;;;;;;5088248;28;19924;-46
2022/04/10 04:09:46;;;;;;;;;;;20.40;38.00;;;;;;5063354;28;19932;-50
2022/04/10 04:12:13;;;;;;;;;;;20.40;38.00;;;;;;5083262;28;19931;-47
2022/04/10 04:14:41;;;;;;;;;;;20.40;38.10;;;;;;5071466;28;20324;-48
2022/04/10 04:17:08;;;;;;;;;;;20.40;38.00;;;;;;5074416;28;19932;-48
2022/04/10 04:19:35;;;;;;;;;;;20.40;38.00;;;;;;5074310;28;19954;-49
2022/04/10 04:22:02;;;;;;;;;;;20.30;38.00;;;;;;5073153;28;19939;-46
2022/04/10 04:24:30;;;;;;;;;;;20.40;38.00;;;;;;5074128;28;19931;-48
2022/04/10 04:26:56;;;;;;;;;;;20.40;38.00;;;;;;5072666;28;19924;-51
2022/04/10 04:29:23;;;;;;;;;;;20.40;38.00;;;;;;5061886;28;20375;-49
2022/04/10 04:31:51;;;;;;;;;;;20.30;37.90;;;;;;5072014;28;19935;-46
2022/04/10 04:34:20;;;;;;;;;;;20.40;38.00;;;;;;5072445;28;20515;-47
2022/04/10 04:36:47;;;;;;;;;;;20.40;38.00;;;;;;5072276;28;19924;-48
2022/04/10 04:39:14;;;;;;;;;;;20.30;37.90;;;;;;5055034;28;20018;-49
2022/04/10 04:41:41;;;;;;;;;;;20.40;38.00;;;;;;5071528;28;20018;-48
2022/04/10 04:44:08;;;;;;;;;;;20.40;38.00;;;;;;5073701;28;20296;-45
2022/04/10 04:46:35;;;;;;;;;;;20.40;38.00;;;;;;5071917;28;19924;-47
2022/04/10 04:49:04;;;;;;;;;;;20.30;37.90;;;;;;5084633;28;20011;-46
2022/04/10 04:51:34;;;;;;;;;;;20.30;37.90;;;;;;5072537;28;19925;-49
2022/04/10 04:54:00;;;;;;;;;;;20.30;37.90;;;;;;5070405;28;19962;-46
2022/04/10 04:56:27;;;;;;;;;;;20.30;37.90;;;;;;5058012;28;19925;-47
2022/04/10 04:58:54;;;;;;;;;;;20.30;37.90;;;;;;5058445;28;19924;-48
2022/04/10 05:01:21;;;;;;;;;;;20.40;38.00;;;;;;5066055;28;19924;-48
2022/04/10 05:03:49;;;;;;;;;;;20.40;38.00;;;;;;5063078;28;19931;-49
2022/04/10 05:06:17;;;;;;;;;;;20.30;37.90;;;;;;5070690;28;19944;-52
2022/04/10 05:08:46;;;;;;;;;;;20.30;37.90;;;;;;5066285;28;19969;-49
2022/04/10 05:11:13;;;;;;;;;;;20.30;37.90;;;;;;5069790;28;19924;-49
2022/04/10 05:13:40;;;;;;;;;;;20.30;37.90;;;;;;5065779;28;19939;-46
2022/04/10 05:16:06;;;;;;;;;;;20.30;37.80;;;;;;5069267;28;20011;-50
2022/04/10 05:18:33;;;;;;;;;;;20.30;37.80;;;;;;5063266;28;20350;-47
2022/04/10 05:21:00;;;;;;;;;;;20.30;37.80;;;;;;5061077;28;20401;-49
2022/04/10 05:23:28;;;;;;;;;;;20.30;37.80;;;;;;5061255;28;19925;-48
2022/04/10 05:25:55;;;;;;;;;;;20.40;37.90;;;;;;5056840;28;19933;-48
2022/04/10 05:28:22;;;;;;;;;;;20.30;37.90;;;;;;5071727;28;19924;-48
2022/04/10 05:30:48;;;;;;;;;;;20.30;37.80;;;;;;5070835;28;19924;-48
2022/04/10 05:33:15;;;;;;;;;;;20.30;37.80;;;;;;5062321;28;19924;-48
2022/04/10 05:35:42;;;;;;;;;;;20.30;37.80;;;;;;5083647;28;19928;-50
2022/04/10 05:38:09;;;;;;;;;;;20.40;37.90;;;;;;5066023;28;19924;-46
2022/04/10 05:40:37;;;;;;;;;;;20.30;37.80;;;;;;5086617;28;19924;-48
2022/04/10 05:43:04;;;;;;;;;;;20.30;37.70;;;;;;5087487;28;19931;-48
2022/04/10 05:45:31;;;;;;;;;;;20.30;37.80;;;;;;5063782;28;20435;-47
2022/04/10 05:47:57;;;;;;;;;;;20.30;37.80;;;;;;5072995;28;19925;-46
2022/04/10 05:50:25;;;;;;;;;;;20.30;37.80;;;;;;5082643;28;19935;-45
2022/04/10 05:52:52;;;;;;;;;;;20.30;37.80;;;;;;5071661;28;20331;-46
2022/04/10 05:55:18;;;;;;;;;;;20.30;37.80;;;;;;5069380;28;19947;-46
2022/04/10 05:57:47;;;;;;;;;;;20.30;37.80;;;;;;5068871;28;20536;-48
2022/04/10 06:00:14;;;;;;;;;;;20.40;37.80;;;;;;5066178;28;19933;-46
2022/04/10 06:02:41;;;;;;;;;;;20.40;37.90;;;;;;5073537;28;19931;-51
2022/04/10 06:05:08;;;;;;;;;;;20.30;37.70;;;;;;5093481;28;20397;-46
2022/04/10 06:07:35;;;;;;;;;;;20.30;37.70;;;;;;5090604;28;20369;-50
2022/04/10 06:10:02;;;;;;;;;;;20.30;37.70;;;;;;5085958;28;19938;-49
2022/04/10 06:12:29;;;;;;;;;;;20.30;37.70;;;;;;5059269;28;19960;-49
2022/04/10 06:14:57;;;;;;;;;;;20.30;37.70;;;;;;5093754;28;20019;-47
2022/04/10 06:17:23;;;;;;;;;;;20.30;37.70;;;;;;5066916;28;19944;-50
2022/04/10 06:19:50;;;;;;;;;;;20.30;37.70;;;;;;5061347;28;19929;-45
2022/04/10 06:22:17;;;;;;;;;;;20.30;37.70;;;;;;5065190;28;19990;-49
2022/04/10 06:24:44;;;;;;;;;;;20.40;37.80;;;;;;5066309;28;20015;-48
2022/04/10 06:27:11;;;;;;;;;;;20.30;37.70;;;;;;5059057;28;20028;-47
2022/04/10 06:29:38;;;;;;;;;;;20.30;37.70;;;;;;5056441;28;19931;-47
2022/04/10 06:32:07;;;;;;;;;;;20.30;37.70;;;;;;5067600;28;20011;-47
2022/04/10 06:34:33;;;;;;;;;;;20.30;37.70;;;;;;5068028;28;19935;-47
2022/04/10 06:37:00;;;;;;;;;;;20.30;37.70;;;;;;5079713;28;19924;-47
2022/04/10 06:39:28;;;;;;;;;;;20.40;37.80;;;;;;5065630;28;19967;-51
2022/04/10 06:41:54;;;;;;;;;;;20.30;37.70;;;;;;5063395;28;19958;-52
2022/04/10 06:44:21;;;;;;;;;;;20.30;37.70;;;;;;5059547;28;19974;-47
2022/04/10 06:46:48;;;;;;;;;;;20.30;37.70;;;;;;5066552;28;19924;-50
2022/04/10 06:49:17;;;;;;;;;;;20.30;37.70;;;;;;5062694;28;19924;-48
2022/04/10 06:51:44;;;;;;;;;;;20.40;37.80;;;;;;5068585;28;20353;-48
2022/04/10 06:54:10;;;;;;;;;;;20.30;37.70;;;;;;5066785;28;19925;-48
2022/04/10 06:56:37;;;;;;;;;;;20.30;37.70;;;;;;5069489;28;19931;-50
2022/04/10 06:59:04;;;;;;;;;;;20.30;37.70;;;;;;5068460;28;20386;-49
2022/04/10 07:01:31;;;;;;;;;;;20.30;37.70;;;;;;5070614;28;20442;-49
2022/04/10 07:03:58;;;;;;;;;;;20.30;37.70;;;;;;5066196;28;20018;-45
2022/04/10 07:06:26;;;;;;;;;;;20.30;37.70;;;;;;5064221;28;19925;-46
2022/04/10 07:08:53;;;;;;;;;;;20.40;37.80;;;;;;5065631;28;19935;-50
2022/04/10 07:11:20;;;;;;;;;;;20.30;37.70;;;;;;5069382;28;20052;-48
2022/04/10 07:13:46;;;;;;;;;;;20.30;37.70;;;;;;5062046;28;19928;-49
2022/04/10 07:16:13;;;;;;;;;;;20.30;37.70;;;;;;5057906;28;19924;-47
2022/04/10 07:18:40;;;;;;;;;;;20.40;37.80;;;;;;5068529;28;19925;-49
2022/04/10 07:21:07;;;;;;;;;;;20.30;37.70;;;;;;5059554;28;19921;-46
2022/04/10 07:23:43;;;;;;;;;;;20.30;37.70;;;;;;5066689;28;20230;-53
2022/04/10 07:26:10;;;;;;;;;;;20.40;37.90;;;;;;5060564;28;19939;-48
2022/04/10 07:28:37;;;;;;;;;;;20.30;37.70;;;;;;5068764;28;19978;-45
2022/04/10 07:31:05;;;;;;;;;;;20.40;37.80;;;;;;5064250;28;19928;-49
2022/04/10 07:33:32;;;;;;;;;;;20.30;37.70;;;;;;5069405;28;19978;-49
2022/04/10 07:35:58;;;;;;;;;;;20.40;37.90;;;;;;5067720;28;20019;-49
2022/04/10 07:38:25;;;;;;;;;;;20.40;38.20;;;;;;5068783;28;20023;-48
2022/04/10 07:40:53;;;;;;;;;;;20.40;37.80;;;;;;5068580;28;19924;-47
2022/04/10 07:43:20;;;;;;;;;;;20.40;37.80;;;;;;5062498;28;20089;-52
2022/04/10 07:48:31;;;;;;;;;;;20.40;37.90;;;;;;5068363;28;20374;-48
2022/04/10 07:50:58;;;;;;;;;;;20.40;37.90;;;;;;5083059;28;20023;-48
2022/04/10 07:53:24;;;;;;;;;;;20.40;37.80;;;;;;5084882;28;20023;-49
2022/04/10 07:55:52;;;;;;;;;;;20.40;37.90;;;;;;5081710;28;19929;-49
2022/04/10 07:58:20;;;;;;;;;;;20.40;37.90;;;;;;5063817;28;19928;-46
2022/04/10 08:00:46;;;;;;;;;;;20.40;37.90;;;;;;5069254;28;19924;-50
2022/04/10 08:03:13;;;;;;;;;;;20.40;37.90;;;;;;5054443;28;20330;-48
2022/04/10 08:05:40;;;;;;;;;;;20.40;37.90;;;;;;5066739;28;19925;-47
2022/04/10 08:08:09;;;;;;;;;;;20.40;37.90;;;;;;5063210;28;20340;-48
2022/04/10 08:10:37;;;;;;;;;;;20.40;37.90;;;;;;5067081;28;19930;-47
2022/04/10 08:13:05;;;;;;;;;;;20.40;37.90;;;;;;5066501;28;19972;-47
2022/04/10 08:15:32;;;;;;;;;;;20.40;38.00;;;;;;5062340;28;19924;-49
2022/04/10 08:17:58;;;;;;;;;;;20.40;38.00;;;;;;5068937;28;19976;-47
2022/04/10 08:20:25;;;;;;;;;;;20.40;38.00;;;;;;5061881;28;19932;-46
2022/04/10 08:22:53;;;;;;;;;;;20.40;38.00;;;;;;5092322;28;19935;-47
2022/04/10 08:25:23;;;;;;;;;;;20.40;38.00;;;;;;5051080;28;19968;-52
2022/04/10 08:27:50;;;;;;;;;;;20.40;38.00;;;;;;5069512;28;19931;-47
2022/04/10 08:30:18;;;;;;;;;;;20.40;38.00;;;;;;5061443;28;20016;-52
2022/04/10 08:32:45;;;;;;;;;;;20.40;38.00;;;;;;5060287;28;19929;-46
2022/04/10 08:35:12;;;;;;;;;;;20.40;38.00;;;;;;5070533;28;19975;-50
2022/04/10 08:37:39;;;;;;;;;;;20.40;38.00;;;;;;5069461;28;19933;-50
2022/04/10 08:40:06;;;;;;;;;;;20.40;38.00;;;;;;5064857;28;19935;-46
2022/04/10 08:42:33;;;;;;;;;;;20.40;38.00;;;;;;5069333;28;19932;-47
2022/04/10 08:45:00;;;;;;;;;;;20.40;38.00;;;;;;5063557;28;20351;-48
2022/04/10 08:47:28;;;;;;;;;;;20.40;38.00;;;;;;5078352;28;19935;-48
2022/04/10 08:49:55;;;;;;;;;;;20.40;38.00;;;;;;5084251;28;19971;-50
2022/04/10 08:52:22;;;;;;;;;;;20.40;38.00;;;;;;5072349;28;20031;-45
2022/04/10 08:54:49;;;;;;;;;;;20.40;38.00;;;;;;5069170;28;19936;-50
2022/04/10 08:57:16;;;;;;;;;;;20.40;38.10;;;;;;5071620;28;19968;-48
2022/04/10 08:59:43;;;;;;;;;;;20.40;38.00;;;;;;5071909;28;20023;-46
2022/04/10 09:02:10;;;;;;;;;;;20.40;38.00;;;;;;5088801;28;19989;-48
2022/04/10 09:04:38;;;;;;;;;;;20.40;38.00;;;;;;5085619;28;19932;-48
2022/04/10 09:07:07;;;;;;;;;;;20.40;37.80;;;;;;5071229;28;20284;-50
2022/04/10 09:09:34;;;;;;;;;;;20.40;36.20;;;;;;5066608;28;19990;-49
2022/04/10 09:12:01;;;;;;;;;;;20.40;35.90;;;;;;5063244;28;19970;-54
2022/04/10 09:14:29;;;;;;;;;;;20.40;35.90;;;;;;5068741;28;19928;-51
2022/04/10 09:17:15;;;;;;;;;;;20.30;36.10;;;;;;5066367;28;19928;-49
2022/04/10 09:19:43;;;;;;;;;;;20.30;36.20;;;;;;5068904;28;19932;-45
2022/04/10 09:22:19;;;;;;;;;;;20.30;36.40;;;;;;5058966;28;19931;-51
2022/04/10 09:25:00;;;;;;;;;;;20.30;36.60;;;;;;5064776;28;19990;-51
2022/04/10 09:27:29;;;;;;;;;;;20.30;36.70;;;;;;5071357;28;19960;-48
2022/04/10 09:29:57;;;;;;;;;;;20.30;37.40;;;;;;5090369;28;19925;-49
2022/04/10 09:32:24;;;;;;;;;;;20.30;36.80;;;;;;5073990;28;19924;-48
2022/04/10 09:34:57;;;;;;;;;;;20.30;36.90;;;;;;5089016;28;20507;-51
2022/04/10 09:37:23;;;;;;;;;;;20.30;37.00;;;;;;5072185;28;19932;-48
2022/04/10 09:39:50;;;;;;;;;;;20.30;37.10;;;;;;5062801;28;19932;-48
2022/04/10 09:42:17;;;;;;;;;;;20.30;37.10;;;;;;5079893;28;19931;-50
2022/04/10 09:44:44;;;;;;;;;;;20.30;37.10;;;;;;5072999;28;19924;-46
2022/04/10 09:47:11;;;;;;;;;;;20.40;37.20;;;;;;5089225;28;20023;-46
2022/04/10 09:49:38;;;;;;;;;;;20.40;37.30;;;;;;5085326;28;20533;-49
2022/04/10 09:52:08;;;;;;;;;;;20.40;37.30;;;;;;5065858;28;19931;-46
2022/04/10 09:54:35;;;;;;;;;;;20.40;37.40;;;;;;5068545;28;20348;-48
2022/04/10 09:57:03;;;;;;;;;;;20.40;37.40;;;;;;5059994;28;19932;-53
2022/04/10 09:59:30;;;;;;;;;;;20.40;37.40;;;;;;5066721;28;19924;-48
2022/04/10 10:01:56;;;;;;;;;;;20.40;37.40;;;;;;5084450;28;19925;-45
2022/04/10 10:04:23;;;;;;;;;;;20.40;37.40;;;;;;5066449;28;19939;-46
2022/04/10 10:06:50;;;;;;;;;;;20.40;37.40;;;;;;5063306;28;20022;-47
2022/04/10 10:09:18;;;;;;;;;;;20.40;37.40;;;;;;5060260;28;19924;-46
2022/04/10 10:11:45;;;;;;;;;;;20.40;37.40;;;;;;5068391;28;19929;-47
2022/04/10 10:14:12;;;;;;;;;;;20.40;37.50;;;;;;5071653;28;19931;-48
2022/04/10 10:16:40;;;;;;;;;;;20.40;37.50;;;;;;5064486;28;19956;-47
2022/04/10 10:19:07;;;;;;;;;;;20.40;37.50;;;;;;5059076;28;19925;-51
2022/04/10 10:21:34;;;;;;;;;;;20.40;37.50;;;;;;5064177;28;19933;-47
2022/04/10 10:24:01;;;;;;;;;;;20.40;37.50;;;;;;5057766;28;20369;-50
2022/04/10 10:26:37;;;;;;;;;;;20.40;37.60;;;;;;5069920;28;19931;-51
2022/04/10 10:29:17;;;;;;;;;;;20.40;37.50;;;;;;5062929;28;19993;-50
2022/04/10 10:31:48;;;;;;;;;;;20.40;37.60;;;;;;5066944;28;20560;-46
2022/04/10 10:34:15;;;;;;;;;;;20.40;37.60;;;;;;5063691;28;20359;-47
2022/04/10 10:36:42;;;;;;;;;;;20.40;37.60;;;;;;5061257;28;20015;-48
2022/04/10 10:39:08;;;;;;;;;;;20.40;37.60;;;;;;5065540;28;19947;-51
2022/04/10 10:41:37;;;;;;;;;;;20.40;37.70;;;;;;5071745;28;20441;-48
2022/04/10 10:44:14;;;;;;;;;;;20.40;37.60;;;;;;5074848;28;19932;-48
2022/04/10 10:46:55;;;;;;;;;;;20.40;37.60;;;;;;5070712;28;19935;-46
2022/04/10 10:49:22;;;;;;;;;;;20.40;37.60;;;;;;5064187;28;19924;-48
2022/04/10 10:51:49;;;;;;;;;;;20.40;37.60;;;;;;5091402;28;19924;-48
2022/04/10 10:54:18;;;;;;;;;;;20.40;37.70;;;;;;5084853;28;19970;-51
2022/04/10 10:56:46;;;;;;;;;;;20.50;37.70;;;;;;5069880;28;20492;-49
2022/04/10 10:59:21;;;;;;;;;;;20.50;37.70;;;;;;5072125;28;19959;-51
2022/04/10 11:01:52;;;;;;;;;;;20.50;37.80;;;;;;5072108;28;20448;-48
2022/04/10 11:04:19;;;;;;;;;;;20.50;37.80;;;;;;5068164;28;19951;-51
2022/04/10 11:06:49;;;;;;;;;;;20.50;37.80;;;;;;5079310;28;19924;-51
2022/04/10 11:09:19;;;;;;;;;;;20.50;37.80;;;;;;5063216;28;19928;-47
2022/04/10 11:11:47;;;;;;;;;;;20.50;37.80;;;;;;5067752;28;20289;-48
2022/04/10 11:14:33;;;;;;;;;;;20.50;37.80;;;;;;5076431;28;20270;-52
2022/04/10 11:17:10;;;;;;;;;;;20.50;37.80;;;;;;5065460;28;19935;-50
2022/04/10 11:19:37;;;;;;;;;;;20.50;37.80;;;;;;5065158;28;19936;-48
2022/04/10 11:22:07;;;;;;;;;;;20.50;37.80;;;;;;5073810;28;19978;-51
2022/04/10 11:24:35;;;;;;;;;;;20.50;37.90;;;;;;5064403;28;20018;-49
2022/04/10 11:27:06;;;;;;;;;;;20.50;37.80;;;;;;5082492;28;20400;-48
2022/04/10 11:29:33;;;;;;;;;;;20.50;37.80;;;;;;5065349;28;20451;-49
2022/04/10 11:32:03;;;;;;;;;;;20.50;37.80;;;;;;5069042;28;19939;-48
2022/04/10 11:34:32;;;;;;;;;;;20.50;37.90;;;;;;5081164;28;20277;-49
2022/04/10 11:37:00;;;;;;;;;;;20.50;37.90;;;;;;5066212;28;19966;-46
2022/04/10 11:39:28;;;;;;;;;;;20.50;37.90;;;;;;5083918;28;20031;-49
2022/04/10 11:41:55;;;;;;;;;;;20.50;37.90;;;;;;5065173;28;19924;-46
2022/04/10 11:44:23;;;;;;;;;;;20.50;37.90;;;;;;5065768;28;19932;-45
2022/04/10 11:46:50;;;;;;;;;;;20.50;37.90;;;;;;5065170;28;19931;-50
2022/04/10 11:49:20;;;;;;;;;;;20.50;37.90;;;;;;5082965;28;19928;-48
2022/04/10 11:51:51;;;;;;;;;;;20.50;37.90;;;;;;5065092;28;19924;-50
2022/04/10 11:54:24;;;;;;;;;;;20.50;37.90;;;;;;5065560;28;20011;-46
2022/04/10 11:56:51;;;;;;;;;;;20.50;37.90;;;;;;5055663;28;19979;-51
2022/04/10 11:59:18;;;;;;;;;;;20.50;37.90;;;;;;5079056;28;19931;-48
2022/04/10 12:01:46;;;;;;;;;;;20.50;37.90;;;;;;5072147;28;19971;-49
2022/04/10 12:04:13;;;;;;;;;;;20.50;37.90;;;;;;5084103;28;19974;-54
2022/04/10 12:06:40;;;;;;;;;;;20.50;38.00;;;;;;5082695;28;20712;-47
2022/04/10 12:09:06;;;;;;;;;;;20.50;38.00;;;;;;5068012;28;19966;-50
2022/04/10 12:11:37;;;;;;;;;;;20.50;38.00;;;;;;5086267;28;19935;-50
2022/04/10 12:14:14;;;;;;;;;;;20.50;38.10;;;;;;5072389;28;20323;-49
2022/04/10 12:16:41;;;;;;;;;;;20.50;38.10;;;;;;5070468;28;19960;-51
2022/04/10 12:19:09;;;;;;;;;;;20.50;38.10;;;;;;5065410;28;19932;-51
2022/04/10 12:21:36;;;;;;;;;;;20.50;38.10;;;;;;5072020;28;19925;-47
2022/04/10 12:24:04;;;;;;;;;;;20.50;38.10;;;;;;5079327;28;20536;-55
2022/04/10 12:26:33;;;;;;;;;;;20.50;38.10;;;;;;5076972;28;20020;-48
2022/04/10 12:28:59;;;;;;;;;;;20.60;38.20;;;;;;5081638;28;19983;-51
2022/04/10 12:31:26;;;;;;;;;;;20.60;38.20;;;;;;5079512;28;19978;-53
2022/04/10 12:33:53;;;;;;;;;;;20.60;38.20;;;;;;5071706;28;19978;-53
2022/04/10 12:36:21;;;;;;;;;;;20.60;38.20;;;;;;5079108;28;19925;-53
2022/04/10 12:38:50;;;;;;;;;;;20.60;38.20;;;;;;5092149;28;19985;-51
2022/04/10 12:41:25;;;;;;;;;;;20.60;38.10;;;;;;5078013;28;19928;-47
2022/04/10 12:43:59;;;;;;;;;;;20.60;38.20;;;;;;5086229;28;20003;-47
2022/04/10 12:46:32;;;;;;;;;;;20.60;38.10;;;;;;5070654;28;19979;-50
2022/04/10 12:49:07;;;;;;;;;;;20.60;38.20;;;;;;5090382;28;20431;-46
2022/04/10 12:51:36;;;;;;;;;;;20.60;38.10;;;;;;5069864;28;20022;-50
2022/04/10 12:54:02;;;;;;;;;;;20.60;38.10;;;;;;5066644;28;19929;-49
2022/04/10 12:56:31;;;;;;;;;;;20.60;38.10;;;;;;5075418;28;20269;-48
2022/04/10 12:58:58;;;;;;;;;;;20.60;38.10;;;;;;5078890;28;20253;-47
2022/04/10 13:01:28;;;;;;;;;;;20.60;38.10;;;;;;5080449;28;19939;-49
2022/04/10 13:03:56;;;;;;;;;;;20.60;38.10;;;;;;5096043;28;19928;-46
2022/04/10 13:06:27;;;;;;;;;;;20.60;38.10;;;;;;5095007;28;19924;-49
2022/04/10 13:09:02;;;;;;;;;;;20.60;38.10;;;;;;5077903;28;19946;-45
2022/04/10 13:11:28;;;;;;;;;;;20.60;38.10;;;;;;5066032;28;19929;-45
2022/04/10 13:13:55;;;;;;;;;;;20.60;38.00;;;;;;5058626;28;19959;-49
2022/04/10 13:16:26;;;;;;;;;;;20.60;38.10;;;;;;5073055;28;20015;-45
2022/04/10 13:18:53;;;;;;;;;;;20.60;38.00;;;;;;5077006;28;19931;-48
2022/04/10 13:21:20;;;;;;;;;;;20.60;38.00;;;;;;5093531;28;19924;-46
2022/04/10 13:23:47;;;;;;;;;;;20.50;37.90;;;;;;5074822;28;20027;-50
2022/04/10 13:26:24;;;;;;;;;;;20.60;38.00;;;;;;5077501;28;19924;-49
2022/04/10 13:28:51;;;;;;;;;;;20.60;38.00;;;;;;5077047;28;19968;-52
2022/04/10 13:31:18;;;;;;;;;;;20.60;38.00;;;;;;5077997;28;19966;-48
2022/04/10 13:33:45;;;;;;;;;;;20.60;38.00;;;;;;5078060;28;19987;-49
2022/04/10 13:36:12;;;;;;;;;;;20.60;38.00;;;;;;5085488;28;19924;-47
2022/04/10 13:38:39;;;;;;;;;;;20.60;38.00;;;;;;5077274;28;19935;-47
2022/04/10 13:41:05;;;;;;;;;;;20.50;37.90;;;;;;5076266;28;19925;-49
2022/04/10 13:43:34;;;;;;;;;;;20.50;37.80;;;;;;5076851;28;20503;-51
2022/04/10 13:46:01;;;;;;;;;;;20.60;37.90;;;;;;5075136;28;20328;-49
2022/04/10 13:48:28;;;;;;;;;;;20.50;37.80;;;;;;5078031;28;20381;-49
2022/04/10 13:50:55;;;;;;;;;;;20.60;37.90;;;;;;5070840;28;19924;-53
2022/04/10 13:53:21;;;;;;;;;;;20.60;37.90;;;;;;5075700;28;19970;-50
2022/04/10 13:55:48;;;;;;;;;;;20.60;37.90;;;;;;5089754;28;19939;-54
2022/04/10 13:58:15;;;;;;;;;;;20.60;37.90;;;;;;5067396;28;20013;-48
2022/04/10 14:00:44;;;;;;;;;;;20.50;37.80;;;;;;5065052;28;19928;-51
2022/04/10 14:03:11;;;;;;;;;;;20.50;37.80;;;;;;5065056;28;19947;-50
2022/04/10 14:05:38;;;;;;;;;;;20.60;37.90;;;;;;5074818;28;20028;-46
2022/04/10 14:08:05;;;;;;;;;;;20.50;37.80;;;;;;5082099;28;20386;-50
2022/04/10 14:10:32;;;;;;;;;;;20.50;37.80;;;;;;5076213;28;20472;-53
2022/04/10 14:12:58;;;;;;;;;;;20.50;37.80;;;;;;5066087;28;20048;-48
2022/04/10 14:15:26;;;;;;;;;;;20.50;37.80;;;;;;5073731;28;19932;-48
2022/04/10 14:17:57;;;;;;;;;;;20.50;37.80;;;;;;5080199;28;19930;-51
2022/04/10 14:20:23;;;;;;;;;;;20.60;37.90;;;;;;5072083;28;19925;-49
2022/04/10 14:22:50;;;;;;;;;;;20.60;37.90;;;;;;5063774;28;19955;-52
2022/04/10 14:25:17;;;;;;;;;;;20.50;37.80;;;;;;5082798;28;20301;-51